Flight Track Log - Related Links

Times and Time Zones

All times are in EDT time to prevent confusion due to time zone crossing. See the SWA2353 flight status page for this flight to view local times or setup timezone preferences in your user account.

Time Position Orientation Groundspeed Altitude Reporting Facility
EDT Latitude Longitude Course Direction KTS MPH feet Rate Location/Type
Wed 07:02:58 PM 39.8667 -75.2833 247° West 147 169 900  Level Philadelphia TRACON
Wed 07:03:46 PM 39.8500 -75.3333 247° West 208 239 2,200 2,333 Climbing Philadelphia TRACON
Wed 07:04:46 PM 39.8500 -75.4000 270° West 215 247 5,100 2,743 Climbing Philadelphia TRACON
Wed 07:05:31 PM 39.8939 -75.4381 326° Northwest 283 326 7,000 2,706 Climbing New York Center
Wed 07:06:28 PM 39.9636 -75.4672 342° North 304 350 9,700 2,492 Climbing New York Center
Wed 07:07:29 PM 40.0622 -75.5036 344° North 351 404 11,900 1,636 Climbing New York Center
Wed 07:08:29 PM 40.1486 -75.5367 344° North 375 432 13,000 550 Climbing New York Center
Wed 07:09:29 PM 40.2425 -75.5867 338° Northwest 375 432 13,000 1,339 Level New York Center
Wed 07:10:30 PM 40.2969 -75.6803 307° West 356 410 15,700 2,803 Climbing New York Center
Wed 07:11:31 PM 40.3269 -75.8078 287° West 343 395 18,700 2,926 Climbing New York Center
Wed 07:12:31 PM 40.3497 -75.9592 281° West 365 420 21,600 2,797 Climbing New York Center
Wed 07:13:29 PM 40.3706 -76.0997 281° West 382 440 24,200 2,500 Climbing New York Center
Wed 07:14:31 PM 40.3931 -76.2403 282° West 394 453 26,600 2,300 Climbing New York Center
Wed 07:15:29 PM 40.4156 -76.3839 282° West 399 459 28,800 1,500 Climbing New York Center
Wed 07:16:31 PM 40.4394 -76.5358 282° West 411 473 29,600 1,279 Climbing New York Center
Wed 07:17:31 PM 40.4650 -76.6964 282° West 425 489 31,400 1,650 Climbing New York Center
Wed 07:18:31 PM 40.4903 -76.8542 282° West 439 505 32,900 1,500 Climbing New York Center
Wed 07:19:31 PM 40.5153 -77.0175 281° West 450 518 34,400 1,424 Climbing New York Center
Wed 07:20:29 PM 40.5400 -77.1781 282° West 450 518 35,700 1,100 Climbing New York Center
Wed 07:21:31 PM 40.5633 -77.3225 282° West 450 518 36,600 863 Climbing New York Center
Wed 07:23:09 PM 40.6033 -77.5967 281° West 472 543 38,000 532 Climbing Cleveland Center
Wed 07:24:09 PM 40.6289 -77.7761 281° West 467 537 38,000  Level Cleveland Center
Wed 07:25:09 PM 40.6514 -77.9339 281° West 462 532 38,000  Level Cleveland Center
Wed 07:26:09 PM 40.6758 -78.0944 281° West 457 526 38,000  Level Cleveland Center
Wed 07:27:09 PM 40.6981 -78.2553 280° West 452 520 38,000  Level Cleveland Center
Wed 07:28:09 PM 40.7200 -78.4133 280° West 447 514 38,000  Level Cleveland Center
Wed 07:29:09 PM 40.7414 -78.5553 281° West 447 514 38,000  Level Cleveland Center
Wed 07:30:09 PM 40.7628 -78.7189 280° West 447 514 38,000  Level Cleveland Center
Wed 07:31:09 PM 40.7842 -78.8803 280° West 447 514 38,000  Level Cleveland Center
Wed 07:32:09 PM 40.8117 -79.0522 282° West 447 514 38,000  Level Cleveland Center
Wed 07:33:09 PM 40.8325 -79.2136 280° West 447 514 38,000  Level Cleveland Center
Wed 07:34:10 PM 40.8531 -79.3753 280° West 447 514 38,000  Level Cleveland Center
Wed 07:35:10 PM 40.8753 -79.5314 281° West 447 514 38,000  Level Cleveland Center
Wed 07:36:10 PM 40.8933 -79.6878 279° West 447 514 38,000  Level Cleveland Center
Wed 07:37:10 PM 40.9133 -79.8494 279° West 447 514 38,000  Level Cleveland Center
Wed 07:38:09 PM 40.9350 -80.0058 280° West 447 514 38,000  Level Cleveland Center
Wed 07:39:10 PM 40.9544 -80.1625 279° West 447 514 38,000  Level Cleveland Center
Wed 07:40:10 PM 40.9736 -80.3219 279° West 447 514 38,000  Level Cleveland Center
Wed 07:41:10 PM 40.9947 -80.4814 280° West 447 514 38,000  Level Cleveland Center
Wed 07:42:09 PM 41.0114 -80.6381 278° West 447 514 38,000  Level Cleveland Center
Wed 07:43:10 PM 41.0300 -80.8006 279° West 447 514 38,000  Level Cleveland Center
Wed 07:44:09 PM 41.0506 -80.9603 280° West 447 514 38,000  Level Cleveland Center
Wed 07:45:09 PM 41.0664 -81.1228 277° West 447 514 38,000  Level Cleveland Center
Wed 07:46:09 PM 41.0844 -81.2856 278° West 447 514 38,000  Level Cleveland Center
Wed 07:47:10 PM 41.1019 -81.4456 278° West 447 514 38,000  Level Cleveland Center
Wed 07:48:10 PM 41.1194 -81.6083 278° West 447 514 38,000  Level Cleveland Center
Wed 07:49:10 PM 41.1428 -81.7686 281° West 447 514 38,000  Level Cleveland Center
Wed 07:50:10 PM 41.1600 -81.9289 278° West 447 514 38,000 -50 Level Cleveland Center
Wed 07:51:10 PM 41.1744 -82.0919 277° West 447 514 37,900 -1,000 Descending Cleveland Center
Wed 07:52:10 PM 41.1908 -82.2608 277° West 460 529 36,000 -950 Descending Cleveland Center
Wed 07:53:10 PM 41.2072 -82.4214 278° West 460 529 36,000  Level Cleveland Center
Wed 07:54:10 PM 41.2253 -82.5819 279° West 447 514 36,000  Level Cleveland Center
Wed 07:55:10 PM 41.2411 -82.7453 277° West 442 509 36,000  Level Cleveland Center
Wed 07:56:10 PM 41.2569 -82.9033 278° West 447 514 36,000  Level Cleveland Center
Wed 07:57:10 PM 41.2742 -83.0697 278° West 453 521 36,000  Level Cleveland Center
Wed 07:58:10 PM 41.2856 -83.2111 276° West 447 514 36,000  Level Cleveland Center
Wed 07:59:09 PM 41.3025 -83.3750 278° West 447 514 36,000  Level Cleveland Center
Wed 08:00:10 PM 41.3153 -83.5358 276° West 447 514 36,000  Level Cleveland Center
Wed 08:01:10 PM 41.3317 -83.6969 278° West 447 514 36,000  Level Cleveland Center
Wed 08:02:09 PM 41.3461 -83.8553 277° West 442 509 36,000  Level Cleveland Center
Wed 08:03:09 PM 41.3603 -84.0083 277° West 442 509 36,000  Level Cleveland Center
Wed 08:05:20 PM 41.3917 -84.3317 277° West 420 483 36,000 -964 Level Chicago Center
Wed 08:06:22 PM 41.4072 -84.5156 276° West 417 480 32,900 -2,613 Descending Chicago Center
Wed 08:07:24 PM 41.4192 -84.6681 276° West 415 478 30,600 -1,403 Descending Chicago Center
Wed 08:08:26 PM 41.4311 -84.8131 276° West 399 459 30,000 -1,065 Descending Chicago Center
Wed 08:09:28 PM 41.4433 -84.9536 277° West 386 444 28,400 -1,210 Descending Chicago Center
Wed 08:10:30 PM 41.4542 -85.0903 276° West 374 430 27,500 -1,016 Descending Chicago Center
Wed 08:11:32 PM 41.4647 -85.2269 276° West 368 423 26,300 -1,403 Descending Chicago Center
Wed 08:12:34 PM 41.4742 -85.3586 276° West 357 411 24,600 -1,645 Descending Chicago Center
Wed 08:13:36 PM 41.4844 -85.4878 276° West 346 398 22,900 -1,403 Descending Chicago Center
Wed 08:14:38 PM 41.4967 -85.6456 276° West 355 409 21,700 -1,258 Descending Chicago Center
Wed 08:15:40 PM 41.5069 -85.7864 276° West 375 432 20,300 -1,645 Descending Chicago Center
Wed 08:16:42 PM 41.5167 -85.9206 276° West 366 421 18,300 -1,887 Descending Chicago Center
Wed 08:17:44 PM 41.5247 -86.0506 275° West 355 409 16,400 -1,935 Descending Chicago Center
Wed 08:18:46 PM 41.5242 -86.1789 270° West 347 399 14,300 -1,951 Descending Chicago Center
Wed 08:19:47 PM 41.5228 -86.3028 269° West 339 390 12,400 -1,756 Descending Chicago Center
Wed 08:20:49 PM 41.5222 -86.4231 270° West 329 379 10,700 -1,161 Descending Chicago Center
Wed 08:21:51 PM 41.5214 -86.5358 269° West 302 348 10,000 -290 Descending Chicago Center
Wed 08:22:53 PM 41.5206 -86.6578 270° West 284 327 10,100 48 Climbing Chicago Center
Wed 08:23:55 PM 41.5200 -86.7575 270° West 271 312 10,100 -48 Level Chicago Center
Wed 08:24:57 PM 41.5186 -86.8583 269° West 273 314 10,000 -634 Descending Chicago Center
Wed 08:25:58 PM 41.5181 -86.9608 270° West 276 318 8,800 -1,317 Descending Chicago Center
Wed 08:27:00 PM 41.5169 -87.0597 269° West 272 313 7,300 -1,403 Descending Chicago Center
Wed 08:28:02 PM 41.5164 -87.1758 270° West 265 305 5,900 -918 Descending Chicago Center
Wed 08:28:25 PM 41.5167 -87.2167 271° West 256 295 6,000 -78 Climbing Chicago TRACON
Wed 08:29:19 PM 41.5333 -87.3000 285° West 262 302 5,800 -650 Descending Chicago TRACON
Wed 08:30:25 PM 41.5333 -87.4000 270° West 262 302 4,700 -936 Descending Chicago TRACON
Wed 08:31:08 PM 41.5397 -87.4611 278° West 261 300 4,100 -404 Descending Chicago Center
Wed 08:32:09 PM 41.5464 -87.5558 275° West 259 298 4,000 -146 Descending Chicago Center
Wed 08:33:11 PM 41.5556 -87.6506 277° West 259 298 3,800 -677 Descending Chicago Center
Wed 08:34:13 PM 41.5939 -87.7517 297° West 260 299 2,600 -596 Descending Chicago Center
Wed 08:35:32 PM 41.6500 -87.8333 313° West 199 229 2,400 -135 Descending Chicago TRACON
Wed 08:36:26 PM 41.6833 -87.8333 360° North 177 204 2,300 -263 Descending Chicago TRACON
Wed 08:37:26 PM 41.7333 -87.8167 14° North 145 167 1,900 -500 Descending Chicago TRACON
Wed 08:38:26 PM 41.7500 -87.7833 56° Northeast 131 151 1,300 -600 Descending Chicago TRACON
Wed 08:41:00 PM 41.7833 -87.7500 28° Northeast  Level FlightAware Approximate

Login

Don't have an account? Register now (free) for customized features, flight alerts, and more!